sensor_id;sensor_type;location;lat;lon;timestamp;pressure;altitude;pressure_sealevel;temperature;humidity
78845;BME280;68195;50.854;2.860;2024-03-08T00:00:08;101362.31;;;4.59;100.00
78845;BME280;68195;50.854;2.860;2024-03-08T00:02:42;101312.75;;;4.29;100.00
78845;BME280;68195;50.854;2.860;2024-03-08T00:05:11;101358.06;;;4.55;100.00
78845;BME280;68195;50.854;2.860;2024-03-08T00:07:40;101379.50;;;4.63;100.00
78845;BME280;68195;50.854;2.860;2024-03-08T00:10:11;101375.94;;;4.68;100.00
78845;BME280;68195;50.854;2.860;2024-03-08T00:12:43;101357.16;;;4.56;100.00
78845;BME280;68195;50.854;2.860;2024-03-08T00:15:12;101367.41;;;4.62;100.00
78845;BME280;68195;50.854;2.860;2024-03-08T00:17:41;101366.56;;;4.63;100.00
78845;BME280;68195;50.854;2.860;2024-03-08T00:20:07;101322.81;;;4.47;100.00
78845;BME280;68195;50.854;2.860;2024-03-08T00:22:38;101326.25;;;4.48;100.00
78845;BME280;68195;50.854;2.860;2024-03-08T00:25:05;101189.66;;;3.63;100.00
78845;BME280;68195;50.854;2.860;2024-03-08T00:27:34;101338.28;;;4.50;100.00
78845;BME280;68195;50.854;2.860;2024-03-08T00:30:02;101293.88;;;4.24;100.00
78845;BME280;68195;50.854;2.860;2024-03-08T00:32:32;101311.66;;;4.45;100.00
78845;BME280;68195;50.854;2.860;2024-03-08T00:35:00;101330.53;;;4.49;100.00
78845;BME280;68195;50.854;2.860;2024-03-08T00:37:26;101331.28;;;4.56;100.00
78845;BME280;68195;50.854;2.860;2024-03-08T00:39:52;101357.00;;;4.66;100.00
78845;BME280;68195;50.854;2.860;2024-03-08T00:42:22;101360.47;;;4.67;100.00
78845;BME280;68195;50.854;2.860;2024-03-08T00:44:51;101297.13;;;4.37;100.00
78845;BME280;68195;50.854;2.860;2024-03-08T00:47:19;101353.56;;;4.64;100.00
78845;BME280;68195;50.854;2.860;2024-03-08T00:49:47;101227.31;;;3.79;100.00
78845;BME280;68195;50.854;2.860;2024-03-08T00:52:12;101323.81;;;4.39;100.00
78845;BME280;68195;50.854;2.860;2024-03-08T00:54:40;101342.69;;;4.44;100.00
78845;BME280;68195;50.854;2.860;2024-03-08T00:57:08;101323.06;;;4.32;100.00
78845;BME280;68195;50.854;2.860;2024-03-08T00:59:33;101338.50;;;4.35;100.00
78845;BME280;68195;50.854;2.860;2024-03-08T01:02:00;101333.44;;;4.29;100.00
78845;BME280;68195;50.854;2.860;2024-03-08T01:04:28;101332.59;;;4.25;100.00
78845;BME280;68195;50.854;2.860;2024-03-08T01:06:59;101308.63;;;4.16;100.00
78845;BME280;68195;50.854;2.860;2024-03-08T01:09:25;101317.06;;;4.28;100.00
78845;BME280;68195;50.854;2.860;2024-03-08T01:11:52;101320.44;;;4.34;100.00
78845;BME280;68195;50.854;2.860;2024-03-08T01:14:21;101259.97;;;3.85;100.00
78845;BME280;68195;50.854;2.860;2024-03-08T01:16:51;101312.88;;;4.20;100.00
78845;BME280;68195;50.854;2.860;2024-03-08T01:19:16;101191.56;;;3.48;100.00
78845;BME280;68195;50.854;2.860;2024-03-08T01:21:42;101258.22;;;3.85;100.00
78845;BME280;68195;50.854;2.860;2024-03-08T01:24:08;101247.16;;;3.76;100.00
78845;BME280;68195;50.854;2.860;2024-03-08T01:26:35;101263.41;;;3.85;100.00
78845;BME280;68195;50.854;2.860;2024-03-08T01:29:01;101235.91;;;3.81;100.00
78845;BME280;68195;50.854;2.860;2024-03-08T01:31:30;101225.63;;;3.77;100.00
78845;BME280;68195;50.854;2.860;2024-03-08T01:34:00;101270.84;;;4.07;100.00
78845;BME280;68195;50.854;2.860;2024-03-08T01:36:26;101283.59;;;4.19;100.00
78845;BME280;68195;50.854;2.860;2024-03-08T01:38:52;101194.03;;;3.58;100.00
78845;BME280;68195;50.854;2.860;2024-03-08T01:41:17;101250.53;;;3.82;100.00
78845;BME280;68195;50.854;2.860;2024-03-08T01:43:45;101268.47;;;3.93;100.00
78845;BME280;68195;50.854;2.860;2024-03-08T01:46:16;101227.66;;;3.53;100.00
78845;BME280;68195;50.854;2.860;2024-03-08T01:48:44;101249.84;;;3.69;100.00
78845;BME280;68195;50.854;2.860;2024-03-08T01:51:10;101212.25;;;3.47;100.00
78845;BME280;68195;50.854;2.860;2024-03-08T01:53:40;101261.00;;;3.72;100.00
78845;BME280;68195;50.854;2.860;2024-03-08T01:56:07;101172.97;;;3.23;100.00
78845;BME280;68195;50.854;2.860;2024-03-08T01:58:37;101207.09;;;3.47;100.00
78845;BME280;68195;50.854;2.860;2024-03-08T02:01:03;101196.75;;;3.45;100.00
78845;BME280;68195;50.854;2.860;2024-03-08T02:03:30;101205.19;;;3.58;100.00
78845;BME280;68195;50.854;2.860;2024-03-08T02:05:59;101174.44;;;3.43;100.00
78845;BME280;68195;50.854;2.860;2024-03-08T02:08:27;101137.66;;;3.25;100.00
78845;BME280;68195;50.854;2.860;2024-03-08T02:10:57;101207.78;;;3.58;100.00
78845;BME280;68195;50.854;2.860;2024-03-08T02:13:24;101227.44;;;3.72;100.00
78845;BME280;68195;50.854;2.860;2024-03-08T02:15:58;101208.59;;;3.62;100.00
78845;BME280;68195;50.854;2.860;2024-03-08T02:18:32;101230.81;;;3.74;100.00
78845;BME280;68195;50.854;2.860;2024-03-08T02:21:00;101218.81;;;3.71;100.00
78845;BME280;68195;50.854;2.860;2024-03-08T02:23:30;101205.19;;;3.60;100.00
78845;BME280;68195;50.854;2.860;2024-03-08T02:25:56;101220.47;;;3.74;100.00
78845;BME280;68195;50.854;2.860;2024-03-08T02:28:24;101180.56;;;3.34;100.00
78845;BME280;68195;50.854;2.860;2024-03-08T02:30:54;101106.06;;;3.08;100.00
78845;BME280;68195;50.854;2.860;2024-03-08T02:33:23;101201.63;;;3.67;100.00
78845;BME280;68195;50.854;2.860;2024-03-08T02:35:49;101197.34;;;3.67;100.00
78845;BME280;68195;50.854;2.860;2024-03-08T02:38:17;101193.78;;;3.76;100.00
78845;BME280;68195;50.854;2.860;2024-03-08T02:40:48;101088.78;;;3.13;100.00
78845;BME280;68195;50.854;2.860;2024-03-08T02:43:14;101088.00;;;3.10;100.00
78845;BME280;68195;50.854;2.860;2024-03-08T02:45:43;101185.47;;;3.54;100.00
78845;BME280;68195;50.854;2.860;2024-03-08T02:48:14;101182.19;;;3.43;100.00
78845;BME280;68195;50.854;2.860;2024-03-08T02:50:40;101094.91;;;3.06;100.00
78845;BME280;68195;50.854;2.860;2024-03-08T02:53:10;101107.88;;;3.03;100.00
78845;BME280;68195;50.854;2.860;2024-03-08T02:55:41;101008.06;;;2.40;100.00
78845;BME280;68195;50.854;2.860;2024-03-08T02:58:09;101166.59;;;3.51;100.00
78845;BME280;68195;50.854;2.860;2024-03-08T03:00:39;101122.19;;;3.24;100.00
78845;BME280;68195;50.854;2.860;2024-03-08T03:03:04;101164.16;;;3.38;100.00
78845;BME280;68195;50.854;2.860;2024-03-08T03:05:36;101134.38;;;3.16;100.00
78845;BME280;68195;50.854;2.860;2024-03-08T03:08:02;101118.19;;;3.01;100.00
78845;BME280;68195;50.854;2.860;2024-03-08T03:10:31;101119.94;;;2.98;100.00
78845;BME280;68195;50.854;2.860;2024-03-08T03:12:59;100995.41;;;2.20;100.00
78845;BME280;68195;50.854;2.860;2024-03-08T03:15:29;101151.56;;;3.15;100.00
78845;BME280;68195;50.854;2.860;2024-03-08T03:17:59;101078.16;;;2.71;100.00
78845;BME280;68195;50.854;2.860;2024-03-08T03:20:27;101130.13;;;3.08;100.00
78845;BME280;68195;50.854;2.860;2024-03-08T03:23:00;101147.09;;;3.28;100.00
78845;BME280;68195;50.854;2.860;2024-03-08T03:25:28;100985.97;;;2.20;100.00
78845;BME280;68195;50.854;2.860;2024-03-08T03:28:00;101100.13;;;3.03;100.00
78845;BME280;68195;50.854;2.860;2024-03-08T03:30:28;101140.28;;;3.22;100.00
78845;BME280;68195;50.854;2.860;2024-03-08T03:32:59;101066.97;;;2.72;100.00
78845;BME280;68195;50.854;2.860;2024-03-08T03:35:26;101129.41;;;2.99;100.00
78845;BME280;68195;50.854;2.860;2024-03-08T03:37:51;100893.09;;;1.55;100.00
78845;BME280;68195;50.854;2.860;2024-03-08T03:40:30;101101.94;;;2.96;100.00
78845;BME280;68195;50.854;2.860;2024-03-08T03:42:58;101119.75;;;3.13;100.00
78845;BME280;68195;50.854;2.860;2024-03-08T03:45:24;101085.69;;;2.88;100.00
78845;BME280;68195;50.854;2.860;2024-03-08T03:47:52;101103.53;;;3.03;100.00
78845;BME280;68195;50.854;2.860;2024-03-08T03:50:22;101103.53;;;3.03;100.00
78845;BME280;68195;50.854;2.860;2024-03-08T03:52:48;101112.13;;;3.07;100.00
78845;BME280;68195;50.854;2.860;2024-03-08T03:55:15;101054.25;;;2.58;100.00
78845;BME280;68195;50.854;2.860;2024-03-08T03:57:43;101020.91;;;2.44;100.00
78845;BME280;68195;50.854;2.860;2024-03-08T04:00:11;101105.50;;;2.86;100.00
78845;BME280;68195;50.854;2.860;2024-03-08T04:02:40;101088.47;;;2.73;100.00
78845;BME280;68195;50.854;2.860;2024-03-08T04:05:09;101082.34;;;2.78;100.00
78845;BME280;68195;50.854;2.860;2024-03-08T04:07:35;101103.69;;;2.94;100.00
78845;BME280;68195;50.854;2.860;2024-03-08T04:10:05;101095.03;;;2.95;100.00
78845;BME280;68195;50.854;2.860;2024-03-08T04:12:36;101037.94;;;2.55;100.00
78845;BME280;68195;50.854;2.860;2024-03-08T04:15:04;101102.78;;;2.97;100.00
78845;BME280;68195;50.854;2.860;2024-03-08T04:17:33;101027.63;;;2.55;100.00
78845;BME280;68195;50.854;2.860;2024-03-08T04:20:05;101017.38;;;2.53;100.00
78845;BME280;68195;50.854;2.860;2024-03-08T04:22:40;101084.75;;;2.94;100.00
78845;BME280;68195;50.854;2.860;2024-03-08T04:25:06;100978.97;;;2.30;100.00
78845;BME280;68195;50.854;2.860;2024-03-08T04:27:35;101003.91;;;2.28;100.00
78845;BME280;68195;50.854;2.860;2024-03-08T04:30:03;101080.66;;;2.77;100.00
78845;BME280;68195;50.854;2.860;2024-03-08T04:32:32;101000.34;;;2.40;100.00
78845;BME280;68195;50.854;2.860;2024-03-08T04:35:03;100870.81;;;1.54;100.00
78845;BME280;68195;50.854;2.860;2024-03-08T04:37:33;101071.06;;;2.87;100.00
78845;BME280;68195;50.854;2.860;2024-03-08T04:40:04;100961.84;;;2.24;100.00
78845;BME280;68195;50.854;2.860;2024-03-08T04:42:35;101022.44;;;2.59;100.00
78845;BME280;68195;50.854;2.860;2024-03-08T04:45:02;101055.59;;;2.87;100.00
78845;BME280;68195;50.854;2.860;2024-03-08T04:47:29;101062.41;;;2.91;100.00
78845;BME280;68195;50.854;2.860;2024-03-08T04:49:59;100988.28;;;2.42;100.00
78845;BME280;68195;50.854;2.860;2024-03-08T04:52:25;101067.69;;;2.83;100.00
78845;BME280;68195;50.854;2.860;2024-03-08T04:54:51;101067.72;;;2.82;100.00
78845;BME280;68195;50.854;2.860;2024-03-08T04:57:17;101066.81;;;2.83;100.00
78845;BME280;68195;50.854;2.860;2024-03-08T04:59:47;101011.38;;;2.50;100.00
78845;BME280;68195;50.854;2.860;2024-03-08T05:02:17;101065.00;;;2.91;100.00
78845;BME280;68195;50.854;2.860;2024-03-08T05:04:43;101021.47;;;2.66;100.00
78845;BME280;68195;50.854;2.860;2024-03-08T05:07:08;101004.34;;;2.62;100.00
78845;BME280;68195;50.854;2.860;2024-03-08T05:09:34;101030.06;;;2.67;100.00
78845;BME280;68195;50.854;2.860;2024-03-08T05:12:01;101042.03;;;2.73;100.00
78845;BME280;68195;50.854;2.860;2024-03-08T05:14:29;101014.78;;;2.53;100.00
78845;BME280;68195;50.854;2.860;2024-03-08T05:17:01;100975.56;;;2.26;100.00
78845;BME280;68195;50.854;2.860;2024-03-08T05:19:27;100965.34;;;2.20;100.00
78845;BME280;68195;50.854;2.860;2024-03-08T05:21:53;101005.38;;;2.47;100.00
78845;BME280;68195;50.854;2.860;2024-03-08T05:24:23;100949.19;;;2.06;100.00
78845;BME280;68195;50.854;2.860;2024-03-08T05:26:51;101031.09;;;2.54;100.00
78845;BME280;68195;50.854;2.860;2024-03-08T05:29:19;100969.69;;;2.17;100.00
78845;BME280;68195;50.854;2.860;2024-03-08T05:31:51;101050.63;;;2.72;100.00
78845;BME280;68195;50.854;2.860;2024-03-08T05:34:22;100921.09;;;1.84;100.00
78845;BME280;68195;50.854;2.860;2024-03-08T05:36:52;100942.34;;;2.03;100.00
78845;BME280;68195;50.854;2.860;2024-03-08T05:39:19;101011.44;;;2.45;100.00
78845;BME280;68195;50.854;2.860;2024-03-08T05:41:48;101023.31;;;2.57;100.00
78845;BME280;68195;50.854;2.860;2024-03-08T05:44:14;100965.28;;;2.25;100.00
78845;BME280;68195;50.854;2.860;2024-03-08T05:46:42;101020.84;;;2.51;100.00
78845;BME280;68195;50.854;2.860;2024-03-08T05:49:10;100952.59;;;2.10;100.00
78845;BME280;68195;50.854;2.860;2024-03-08T05:51:37;101020.06;;;2.42;100.00
78845;BME280;68195;50.854;2.860;2024-03-08T05:54:11;100975.59;;;2.25;100.00
78845;BME280;68195;50.854;2.860;2024-03-08T05:56:38;100970.53;;;2.16;100.00
78845;BME280;68195;50.854;2.860;2024-03-08T05:59:06;100991.00;;;2.30;100.00
78845;BME280;68195;50.854;2.860;2024-03-08T06:01:31;100930.38;;;1.98;100.00
78845;BME280;68195;50.854;2.860;2024-03-08T06:03:56;100998.69;;;2.33;100.00
78845;BME280;68195;50.854;2.860;2024-03-08T06:06:24;100915.09;;;1.84;100.00
78845;BME280;68195;50.854;2.860;2024-03-08T06:08:52;101002.09;;;2.36;100.00
78845;BME280;68195;50.854;2.860;2024-03-08T06:11:20;100945.78;;;2.05;100.00
78845;BME280;68195;50.854;2.860;2024-03-08T06:13:48;100960.28;;;2.14;100.00
78845;BME280;68195;50.854;2.860;2024-03-08T06:16:19;100857.91;;;1.56;100.00
78845;BME280;68195;50.854;2.860;2024-03-08T06:18:44;100948.28;;;2.12;100.00
78845;BME280;68195;50.854;2.860;2024-03-08T06:21:12;100910.78;;;1.86;100.00
78845;BME280;68195;50.854;2.860;2024-03-08T06:23:38;100921.94;;;1.88;100.00
78845;BME280;68195;50.854;2.860;2024-03-08T06:26:06;100937.34;;;1.91;100.00
78845;BME280;68195;50.854;2.860;2024-03-08T06:28:34;100865.66;;;1.54;100.00
78845;BME280;68195;50.854;2.860;2024-03-08T06:31:02;100979.84;;;2.29;100.00
78845;BME280;68195;50.854;2.860;2024-03-08T06:33:31;100903.09;;;1.83;100.00
78845;BME280;68195;50.854;2.860;2024-03-08T06:36:00;100932.13;;;1.97;100.00
78845;BME280;68195;50.854;2.860;2024-03-08T06:38:27;100934.63;;;2.02;100.00
78845;BME280;68195;50.854;2.860;2024-03-08T06:40:53;100898.75;;;1.87;100.00
78845;BME280;68195;50.854;2.860;2024-03-08T06:43:19;100906.44;;;1.93;100.00
78845;BME280;68195;50.854;2.860;2024-03-08T06:45:49;100951.50;;;2.28;100.00
78845;BME280;68195;50.854;2.860;2024-03-08T06:48:18;100984.88;;;2.38;100.00
78845;BME280;68195;50.854;2.860;2024-03-08T06:50:49;100971.25;;;2.29;100.00
78845;BME280;68195;50.854;2.860;2024-03-08T06:53:17;100949.91;;;2.17;100.00
78845;BME280;68195;50.854;2.860;2024-03-08T06:55:44;100932.97;;;1.98;100.00
78845;BME280;68195;50.854;2.860;2024-03-08T06:58:12;100966.84;;;2.38;100.00
78845;BME280;68195;50.854;2.860;2024-03-08T07:00:37;100894.34;;;1.96;100.00
78845;BME280;68195;50.854;2.860;2024-03-08T07:03:03;100967.59;;;2.46;100.00
78845;BME280;68195;50.854;2.860;2024-03-08T07:05:34;100941.97;;;2.34;100.00
78845;BME280;68195;50.854;2.860;2024-03-08T07:08:00;100947.84;;;2.44;100.00
78845;BME280;68195;50.854;2.860;2024-03-08T07:10:25;100953.94;;;2.40;100.00
78845;BME280;68195;50.854;2.860;2024-03-08T07:12:54;100914.63;;;2.22;100.00
78845;BME280;68195;50.854;2.860;2024-03-08T07:15:21;100945.25;;;2.45;100.00
78845;BME280;68195;50.854;2.860;2024-03-08T07:17:48;100962.25;;;2.59;100.00
78845;BME280;68195;50.854;2.860;2024-03-08T07:20:17;100925.75;;;2.29;100.00
78845;BME280;68195;50.854;2.860;2024-03-08T07:22:49;100946.78;;;2.62;100.00
78845;BME280;68195;50.854;2.860;2024-03-08T07:25:20;100926.38;;;2.43;100.00
78845;BME280;68195;50.854;2.860;2024-03-08T07:27:55;100861.63;;;2.03;100.00
78845;BME280;68195;50.854;2.860;2024-03-08T07:30:22;100953.59;;;2.66;100.00
78845;BME280;68195;50.854;2.860;2024-03-08T07:33:07;100955.97;;;2.81;100.00
78845;BME280;68195;50.854;2.860;2024-03-08T07:35:33;100955.81;;;2.91;100.00
78845;BME280;68195;50.854;2.860;2024-03-08T07:38:05;100884.06;;;2.61;100.00
78845;BME280;68195;50.854;2.860;2024-03-08T07:40:37;100847.63;;;2.24;100.00
78845;BME280;68195;50.854;2.860;2024-03-08T07:43:12;100929.38;;;2.76;100.00
78845;BME280;68195;50.854;2.860;2024-03-08T07:45:38;100813.44;;;2.11;100.00
78845;BME280;68195;50.854;2.860;2024-03-08T07:48:04;100900.06;;;2.82;100.00
78845;BME280;68195;50.854;2.860;2024-03-08T07:50:36;100903.25;;;2.98;100.00
78845;BME280;68195;50.854;2.860;2024-03-08T07:53:02;100880.09;;;2.93;100.00
78845;BME280;68195;50.854;2.860;2024-03-08T07:55:32;100875.03;;;2.87;100.00
78845;BME280;68195;50.854;2.860;2024-03-08T07:57:57;100875.75;;;2.97;100.00
78845;BME280;68195;50.854;2.860;2024-03-08T08:00:23;100847.66;;;2.80;100.00
78845;BME280;68195;50.854;2.860;2024-03-08T08:02:55;100917.34;;;3.29;100.00
78845;BME280;68195;50.854;2.860;2024-03-08T08:05:20;100873.84;;;3.08;100.00
78845;BME280;68195;50.854;2.860;2024-03-08T08:07:50;100908.75;;;3.31;100.00
78845;BME280;68195;50.854;2.860;2024-03-08T08:10:18;100902.38;;;3.50;100.00
78845;BME280;68195;50.854;2.860;2024-03-08T08:12:47;100853.00;;;3.19;100.00
78845;BME280;68195;50.854;2.860;2024-03-08T08:15:15;100902.44;;;3.45;100.00
78845;BME280;68195;50.854;2.860;2024-03-08T08:17:46;100818.94;;;3.00;100.00
78845;BME280;68195;50.854;2.860;2024-03-08T08:20:15;100819.63;;;3.10;100.00
78845;BME280;68195;50.854;2.860;2024-03-08T08:22:43;100884.69;;;3.74;100.00
78845;BME280;68195;50.854;2.860;2024-03-08T08:25:12;100889.59;;;3.87;100.00
78845;BME280;68195;50.854;2.860;2024-03-08T08:27:41;100891.91;;;4.01;100.00
78845;BME280;68195;50.854;2.860;2024-03-08T08:30:10;100780.31;;;3.42;100.00
78845;BME280;68195;50.854;2.860;2024-03-08T08:32:41;100813.41;;;3.65;100.00
78845;BME280;68195;50.854;2.860;2024-03-08T08:35:09;100850.50;;;4.04;100.00
78845;BME280;68195;50.854;2.860;2024-03-08T08:37:41;100779.78;;;3.69;100.00
78845;BME280;68195;50.854;2.860;2024-03-08T08:40:07;100838.31;;;4.11;100.00
78845;BME280;68195;50.854;2.860;2024-03-08T08:42:41;100785.31;;;3.92;100.00
78845;BME280;68195;50.854;2.860;2024-03-08T08:45:11;100811.28;;;4.26;100.00
78845;BME280;68195;50.854;2.860;2024-03-08T08:47:39;100836.91;;;4.35;100.00
78845;BME280;68195;50.854;2.860;2024-03-08T08:50:10;100809.59;;;4.23;100.00
78845;BME280;68195;50.854;2.860;2024-03-08T08:52:39;100804.22;;;4.32;100.00
78845;BME280;68195;50.854;2.860;2024-03-08T08:55:08;100788.63;;;4.36;100.00
78845;BME280;68195;50.854;2.860;2024-03-08T08:57:34;100812.16;;;4.61;100.00
78845;BME280;68195;50.854;2.860;2024-03-08T09:00:00;100838.88;;;4.97;100.00
78845;BME280;68195;50.854;2.860;2024-03-08T09:02:27;100842.88;;;5.09;100.00
78845;BME280;68195;50.854;2.860;2024-03-08T09:04:54;100775.66;;;4.73;100.00
78845;BME280;68195;50.854;2.860;2024-03-08T09:07:22;100830.75;;;5.11;100.00
78845;BME280;68195;50.854;2.860;2024-03-08T09:09:52;100842.41;;;5.27;100.00
78845;BME280;68195;50.854;2.860;2024-03-08T09:12:22;100814.81;;;5.26;100.00
78845;BME280;68195;50.854;2.860;2024-03-08T09:14:49;100832.16;;;5.55;100.00
78845;BME280;68195;50.854;2.860;2024-03-08T09:17:15;100729.38;;;4.95;100.00
78845;BME280;68195;50.854;2.860;2024-03-08T09:19:49;100777.94;;;5.49;100.00
78845;BME280;68195;50.854;2.860;2024-03-08T09:22:19;100758.81;;;5.53;100.00
78845;BME280;68195;50.854;2.860;2024-03-08T09:24:45;100813.50;;;6.05;100.00
78845;BME280;68195;50.854;2.860;2024-03-08T09:27:10;100760.66;;;5.80;99.40
78845;BME280;68195;50.854;2.860;2024-03-08T09:29:38;100727.31;;;5.67;97.95
78845;BME280;68195;50.854;2.860;2024-03-08T09:32:04;100749.13;;;5.90;98.38
78845;BME280;68195;50.854;2.860;2024-03-08T09:34:32;100791.63;;;6.14;99.15
78845;BME280;68195;50.854;2.860;2024-03-08T09:36:59;100733.59;;;5.88;98.56
78845;BME280;68195;50.854;2.860;2024-03-08T09:39:25;100722.09;;;5.99;98.87
78845;BME280;68195;50.854;2.860;2024-03-08T09:41:52;100739.47;;;6.23;98.24
78845;BME280;68195;50.854;2.860;2024-03-08T09:44:20;100656.66;;;5.90;98.51
78845;BME280;68195;50.854;2.860;2024-03-08T09:46:46;100764.88;;;6.40;96.29
78845;BME280;68195;50.854;2.860;2024-03-08T09:49:16;100763.06;;;6.69;98.10
78845;BME280;68195;50.854;2.860;2024-03-08T09:51:42;100705.00;;;6.46;96.29
78845;BME280;68195;50.854;2.860;2024-03-08T09:54:07;100763.31;;;6.86;94.00
78845;BME280;68195;50.854;2.860;2024-03-08T09:56:35;100649.28;;;6.31;95.33
78845;BME280;68195;50.854;2.860;2024-03-08T09:59:03;100671.88;;;6.28;92.17
78845;BME280;68195;50.854;2.860;2024-03-08T10:01:28;100703.59;;;6.36;94.25
78845;BME280;68195;50.854;2.860;2024-03-08T10:03:59;100649.81;;;6.16;94.03
78845;BME280;68195;50.854;2.860;2024-03-08T10:06:24;100707.53;;;6.73;96.35
78845;BME280;68195;50.854;2.860;2024-03-08T10:08:50;100645.44;;;6.68;96.75
78845;BME280;68195;50.854;2.860;2024-03-08T10:11:18;100643.25;;;6.81;94.19
78845;BME280;68195;50.854;2.860;2024-03-08T10:13:44;100657.72;;;6.87;94.31
78845;BME280;68195;50.854;2.860;2024-03-08T10:16:12;100696.22;;;7.24;94.72
78845;BME280;68195;50.854;2.860;2024-03-08T10:18:37;100645.06;;;7.03;95.04
78845;BME280;68195;50.854;2.860;2024-03-08T10:21:09;100715.91;;;7.53;94.96
78845;BME280;68195;50.854;2.860;2024-03-08T10:23:41;100645.16;;;7.23;92.67
78845;BME280;68195;50.854;2.860;2024-03-08T10:26:17;100684.00;;;7.50;92.25
78845;BME280;68195;50.854;2.860;2024-03-08T10:28:49;100657.41;;;7.43;94.23
78845;BME280;68195;50.854;2.860;2024-03-08T10:31:15;100650.63;;;7.39;91.45
78845;BME280;68195;50.854;2.860;2024-03-08T10:33:41;100646.16;;;7.19;90.65
78845;BME280;68195;50.854;2.860;2024-03-08T10:36:10;100602.94;;;6.71;92.68
78845;BME280;68195;50.854;2.860;2024-03-08T10:38:40;100650.03;;;7.09;95.02
78845;BME280;68195;50.854;2.860;2024-03-08T10:41:06;100626.72;;;7.07;95.46
78845;BME280;68195;50.854;2.860;2024-03-08T10:47:03;100665.69;;;7.53;96.38
78845;BME280;68195;50.854;2.860;2024-03-08T10:49:50;100567.81;;;7.08;94.13
78845;BME280;68195;50.854;2.860;2024-03-08T10:52:16;100627.69;;;7.50;92.50
78845;BME280;68195;50.854;2.860;2024-03-08T10:54:47;100489.56;;;6.49;91.53
78845;BME280;68195;50.854;2.860;2024-03-08T10:57:17;100620.16;;;7.43;93.11
78845;BME280;68195;50.854;2.860;2024-03-08T10:59:47;100507.97;;;6.89;92.47
78845;BME280;68195;50.854;2.860;2024-03-08T11:02:16;100587.66;;;7.54;94.64
78845;BME280;68195;50.854;2.860;2024-03-08T11:04:50;100615.94;;;7.84;93.88
78845;BME280;68195;50.854;2.860;2024-03-08T11:07:16;100612.91;;;7.95;91.71
78845;BME280;68195;50.854;2.860;2024-03-08T11:09:43;100600.00;;;7.71;90.38
78845;BME280;68195;50.854;2.860;2024-03-08T11:14:55;100616.88;;;8.04;89.41
78845;BME280;68195;50.854;2.860;2024-03-08T11:19:56;100547.56;;;7.60;90.52
78845;BME280;68195;50.854;2.860;2024-03-08T11:22:52;100585.44;;;7.88;91.38
78845;BME280;68195;50.854;2.860;2024-03-08T11:25:39;100593.47;;;8.04;91.62
78845;BME280;68195;50.854;2.860;2024-03-08T11:28:20;100592.25;;;8.12;92.20
78845;BME280;68195;50.854;2.860;2024-03-08T11:33:27;100604.13;;;8.18;88.30
78845;BME280;68195;50.854;2.860;2024-03-08T11:36:02;100585.34;;;8.11;88.29
78845;BME280;68195;50.854;2.860;2024-03-08T11:38:32;100580.13;;;8.11;90.19
78845;BME280;68195;50.854;2.860;2024-03-08T11:40:58;100599.41;;;8.28;88.18
78845;BME280;68195;50.854;2.860;2024-03-08T11:43:24;100603.69;;;8.29;90.61
78845;BME280;68195;50.854;2.860;2024-03-08T11:46:07;100540.69;;;8.01;91.06
78845;BME280;68195;50.854;2.860;2024-03-08T11:48:35;100540.59;;;8.03;87.32
78845;BME280;68195;50.854;2.860;2024-03-08T11:51:07;100536.63;;;8.15;87.65
78845;BME280;68195;50.854;2.860;2024-03-08T11:53:33;100536.63;;;8.15;90.15
78845;BME280;68195;50.854;2.860;2024-03-08T11:56:08;100489.78;;;7.96;87.17
78845;BME280;68195;50.854;2.860;2024-03-08T11:58:34;100570.72;;;8.50;89.95
78845;BME280;68195;50.854;2.860;2024-03-08T12:01:09;100511.63;;;8.12;87.79
78845;BME280;68195;50.854;2.860;2024-03-08T12:03:38;100527.53;;;8.25;88.23
78845;BME280;68195;50.854;2.860;2024-03-08T12:06:04;100529.06;;;8.29;92.32
78845;BME280;68195;50.854;2.860;2024-03-08T12:08:35;100543.19;;;8.44;93.17
78845;BME280;68195;50.854;2.860;2024-03-08T12:11:03;100515.56;;;8.40;93.89
78845;BME280;68195;50.854;2.860;2024-03-08T12:13:33;100531.13;;;8.62;91.45
78845;BME280;68195;50.854;2.860;2024-03-08T12:15:59;100540.97;;;8.74;92.86
78845;BME280;68195;50.854;2.860;2024-03-08T12:18:32;100476.69;;;8.37;92.82
78845;BME280;68195;50.854;2.860;2024-03-08T12:21:08;100521.19;;;8.70;93.39
78845;BME280;68195;50.854;2.860;2024-03-08T12:23:38;100484.97;;;8.47;93.06
78845;BME280;68195;50.854;2.860;2024-03-08T12:26:13;100535.78;;;8.93;92.45
78845;BME280;68195;50.854;2.860;2024-03-08T12:28:43;100456.00;;;8.54;91.16
78845;BME280;68195;50.854;2.860;2024-03-08T12:31:11;100401.31;;;8.16;92.49
78845;BME280;68195;50.854;2.860;2024-03-08T12:33:53;100481.53;;;8.84;91.95
78845;BME280;68195;50.854;2.860;2024-03-08T12:36:21;100510.81;;;9.07;88.85
78845;BME280;68195;50.854;2.860;2024-03-08T12:38:47;100406.13;;;8.45;92.04
78845;BME280;68195;50.854;2.860;2024-03-08T12:41:19;100517.31;;;9.17;87.38
78845;BME280;68195;50.854;2.860;2024-03-08T12:43:45;100445.97;;;8.83;89.66
78845;BME280;68195;50.854;2.860;2024-03-08T12:46:15;100348.09;;;8.24;90.08
78845;BME280;68195;50.854;2.860;2024-03-08T12:48:41;100413.50;;;8.73;90.12
78845;BME280;68195;50.854;2.860;2024-03-08T12:51:07;100490.78;;;9.26;89.69
78845;BME280;68195;50.854;2.860;2024-03-08T12:53:35;100352.25;;;8.47;90.75
78845;BME280;68195;50.854;2.860;2024-03-08T12:56:03;100475.03;;;9.29;90.56
78845;BME280;68195;50.854;2.860;2024-03-08T12:58:32;100426.69;;;9.04;91.09
78845;BME280;68195;50.854;2.860;2024-03-08T13:00:58;100404.41;;;8.99;91.85
78845;BME280;68195;50.854;2.860;2024-03-08T13:03:24;100462.25;;;9.42;92.03
78845;BME280;68195;50.854;2.860;2024-03-08T13:05:49;100363.63;;;8.80;91.84
78845;BME280;68195;50.854;2.860;2024-03-08T13:08:15;100409.59;;;9.18;91.01
78845;BME280;68195;50.854;2.860;2024-03-08T13:10:41;100442.53;;;9.54;89.50